FFT1279 KMIA-KDEN
Flight info
| Callsign | FFT1279 |
|---|---|
| Flight time | 4h 1m |
| Altitude | 34000 |
| Route | GLADZ4 BAGGS REMIS Y280 REDFN Q105 HRV EIC/N0464F360 J20 IRW MMB HALEN NIIXX4 |
| Aircraft | A20N/M-SDE2E3FGHIRWXY/LB1 |
Departure
| Time | 2026-05-07 10:36 |
|---|---|
| Airport | Miami International Airport (KMIA) |
Arrival
| Time | 2026-05-07 14:37 |
|---|---|
| Airport | Denver International Airport (KDEN) |
| Time | Latitude | Longitude | Altitude | Speed | Heading |
|---|---|---|---|---|---|
| 2026-05-07 09:36 | 25.79316 | -80.28117 | 13 ft | 0 kts | 168° |
| 2026-05-07 10:27 | 25.79323 | -80.28119 | 13 ft | 2 kts | 168° |
| 2026-05-07 10:27 | 25.79338 | -80.28122 | 13 ft | 2 kts | 168° |
| 2026-05-07 10:27 | 25.79353 | -80.28125 | 13 ft | 2 kts | 168° |
| 2026-05-07 10:27 | 25.79368 | -80.28128 | 13 ft | 2 kts | 187° |
| 2026-05-07 10:28 | 25.79382 | -80.28123 | 13 ft | 2 kts | 215° |
| 2026-05-07 10:28 | 25.79392 | -80.28110 | 13 ft | 1 kts | 242° |
| 2026-05-07 10:28 | 25.79394 | -80.28105 | 13 ft | 0 kts | 246° |
| 2026-05-07 10:30 | 25.79392 | -80.28110 | 13 ft | 1 kts | 246° |
| 2026-05-07 10:31 | 25.79375 | -80.28153 | 13 ft | 10 kts | 246° |
| 2026-05-07 10:31 | 25.79350 | -80.28258 | 13 ft | 17 kts | 263° |
| 2026-05-07 10:31 | 25.79337 | -80.28414 | 13 ft | 22 kts | 265° |
| 2026-05-07 10:31 | 25.79324 | -80.28580 | 13 ft | 21 kts | 263° |
| 2026-05-07 10:32 | 25.79307 | -80.28741 | 13 ft | 20 kts | 275° |
| 2026-05-07 10:32 | 25.79367 | -80.28879 | 13 ft | 19 kts | 300° |
| 2026-05-07 10:32 | 25.79434 | -80.29006 | 13 ft | 19 kts | 299° |
| 2026-05-07 10:32 | 25.79498 | -80.29134 | 13 ft | 18 kts | 298° |
| 2026-05-07 10:33 | 25.79558 | -80.29259 | 13 ft | 18 kts | 298° |
| 2026-05-07 10:33 | 25.79620 | -80.29379 | 13 ft | 17 kts | 300° |
| 2026-05-07 10:33 | 25.79682 | -80.29499 | 13 ft | 17 kts | 300° |
| 2026-05-07 10:33 | 25.79743 | -80.29617 | 13 ft | 17 kts | 300° |
| 2026-05-07 10:34 | 25.79802 | -80.29731 | 13 ft | 17 kts | 299° |
| 2026-05-07 10:34 | 25.79860 | -80.29847 | 13 ft | 17 kts | 298° |
| 2026-05-07 10:34 | 25.79919 | -80.29964 | 13 ft | 17 kts | 300° |
| 2026-05-07 10:34 | 25.79978 | -80.30077 | 13 ft | 17 kts | 300° |
| 2026-05-07 10:35 | 25.80029 | -80.30128 | 13 ft | 7 kts | 2° |
| 2026-05-07 10:35 | 25.80075 | -80.30098 | 13 ft | 8 kts | 57° |
| 2026-05-07 10:35 | 25.80080 | -80.30042 | 13 ft | 7 kts | 91° |
| 2026-05-07 10:35 | 25.80080 | -80.29919 | 13 ft | 40 kts | 87° |
| 2026-05-07 10:36 | 25.80101 | -80.29354 | 13 ft | 104 kts | 87° |
| 2026-05-07 10:36 | 25.80145 | -80.28336 | 14 ft | 158 kts | 86° |
| 2026-05-07 10:36 | 25.80200 | -80.26993 | 225 ft | 182 kts | 87° |
| 2026-05-07 10:36 | 25.80287 | -80.25589 | 816 ft | 183 kts | 87° |
| 2026-05-07 10:37 | 25.80348 | -80.24209 | 1468 ft | 183 kts | 89° |
| 2026-05-07 10:37 | 25.80399 | -80.22788 | 2027 ft | 189 kts | 89° |
| 2026-05-07 10:37 | 25.80451 | -80.21264 | 2399 ft | 205 kts | 89° |
| 2026-05-07 10:37 | 25.80511 | -80.19605 | 2688 ft | 228 kts | 87° |
| 2026-05-07 10:38 | 25.80886 | -80.17848 | 3065 ft | 248 kts | 61° |
| 2026-05-07 10:38 | 25.82102 | -80.16417 | 3502 ft | 266 kts | 30° |
| 2026-05-07 10:38 | 25.83882 | -80.15829 | 4199 ft | 271 kts | 3° |
| 2026-05-07 10:38 | 25.85761 | -80.15806 | 5050 ft | 271 kts | 1° |
| 2026-05-07 10:39 | 25.87643 | -80.15765 | 5843 ft | 272 kts | 1° |
| 2026-05-07 10:39 | 25.89552 | -80.15894 | 6608 ft | 275 kts | 352° |
| 2026-05-07 10:39 | 25.91401 | -80.16373 | 7337 ft | 279 kts | 345° |
| 2026-05-07 10:39 | 25.93287 | -80.17020 | 8051 ft | 282 kts | 344° |
| 2026-05-07 10:40 | 25.95151 | -80.17686 | 8712 ft | 285 kts | 344° |
| 2026-05-07 10:40 | 25.97021 | -80.18443 | 9319 ft | 291 kts | 333° |
| 2026-05-07 10:40 | 25.98546 | -80.19929 | 9872 ft | 300 kts | 305° |
| 2026-05-07 10:40 | 25.99328 | -80.22090 | 10421 ft | 308 kts | 281° |
| 2026-05-07 10:41 | 25.99591 | -80.24515 | 10725 ft | 323 kts | 277° |
| 2026-05-07 10:41 | 25.99776 | -80.27040 | 10986 ft | 338 kts | 274° |
| 2026-05-07 10:41 | 25.99822 | -80.29739 | 11236 ft | 354 kts | 271° |
| 2026-05-07 10:41 | 25.99803 | -80.32500 | 11469 ft | 367 kts | 271° |
| 2026-05-07 10:42 | 25.99782 | -80.35390 | 11695 ft | 381 kts | 271° |
| 2026-05-07 10:42 | 25.99770 | -80.38388 | 11998 ft | 390 kts | 271° |
| 2026-05-07 10:42 | 25.99556 | -80.41381 | 12457 ft | 395 kts | 258° |
| 2026-05-07 10:42 | 25.98617 | -80.44263 | 13006 ft | 398 kts | 243° |
| 2026-05-07 10:43 | 25.97058 | -80.46807 | 13523 ft | 400 kts | 233° |
| 2026-05-07 10:43 | 25.95335 | -80.49211 | 14001 ft | 403 kts | 232° |
| 2026-05-07 10:43 | 25.93571 | -80.51642 | 14481 ft | 405 kts | 232° |
| 2026-05-07 10:43 | 25.91802 | -80.54097 | 14974 ft | 407 kts | 233° |
| 2026-05-07 10:44 | 25.90038 | -80.56567 | 15458 ft | 408 kts | 233° |
| 2026-05-07 10:44 | 25.88292 | -80.59025 | 15912 ft | 411 kts | 234° |
| 2026-05-07 10:44 | 25.86527 | -80.61517 | 16366 ft | 413 kts | 234° |
| 2026-05-07 10:44 | 25.84755 | -80.64020 | 16819 ft | 414 kts | 234° |
| 2026-05-07 10:45 | 25.82970 | -80.66543 | 17270 ft | 416 kts | 234° |
| 2026-05-07 10:45 | 25.81171 | -80.69082 | 17713 ft | 418 kts | 234° |
| 2026-05-07 10:45 | 25.79496 | -80.71732 | 18152 ft | 417 kts | 242° |
| 2026-05-07 10:45 | 25.78168 | -80.74558 | 18596 ft | 416 kts | 249° |
| 2026-05-07 10:46 | 25.77175 | -80.77559 | 19036 ft | 415 kts | 255° |
| 2026-05-07 10:46 | 25.76337 | -80.80630 | 19465 ft | 416 kts | 256° |
| 2026-05-07 10:46 | 25.75532 | -80.83672 | 19860 ft | 418 kts | 256° |
| 2026-05-07 10:46 | 25.74699 | -80.86790 | 20275 ft | 419 kts | 256° |
| 2026-05-07 10:47 | 25.73862 | -80.89889 | 20688 ft | 420 kts | 256° |
| 2026-05-07 10:47 | 25.73020 | -80.92978 | 21069 ft | 422 kts | 256° |
| 2026-05-07 10:47 | 25.72171 | -80.96088 | 21453 ft | 423 kts | 255° |
| 2026-05-07 10:47 | 25.71317 | -80.99209 | 21845 ft | 424 kts | 255° |
| 2026-05-07 10:48 | 25.70452 | -81.02371 | 22242 ft | 425 kts | 255° |
| 2026-05-07 10:48 | 25.69602 | -81.05471 | 22602 ft | 426 kts | 255° |
| 2026-05-07 10:48 | 25.68727 | -81.08656 | 22960 ft | 428 kts | 255° |
| 2026-05-07 10:48 | 25.67859 | -81.11816 | 23301 ft | 430 kts | 255° |
| 2026-05-07 10:49 | 25.66997 | -81.14951 | 23631 ft | 431 kts | 255° |
| 2026-05-07 10:49 | 25.66119 | -81.18140 | 23968 ft | 433 kts | 256° |
| 2026-05-07 10:49 | 25.65435 | -81.21383 | 24266 ft | 432 kts | 266° |
| 2026-05-07 10:49 | 25.65482 | -81.24702 | 24570 ft | 431 kts | 279° |
| 2026-05-07 10:50 | 25.66253 | -81.27902 | 24881 ft | 431 kts | 292° |
| 2026-05-07 10:50 | 25.67537 | -81.30865 | 25210 ft | 432 kts | 296° |
| 2026-05-07 10:50 | 25.68919 | -81.33876 | 25517 ft | 434 kts | 296° |
| 2026-05-07 10:50 | 25.70277 | -81.36832 | 25793 ft | 435 kts | 296° |
| 2026-05-07 10:51 | 25.71656 | -81.39841 | 26062 ft | 437 kts | 296° |
| 2026-05-07 10:51 | 25.73030 | -81.42851 | 26317 ft | 439 kts | 296° |
| 2026-05-07 10:51 | 25.74406 | -81.45870 | 26564 ft | 440 kts | 296° |
| 2026-05-07 10:51 | 25.75790 | -81.48914 | 26805 ft | 442 kts | 296° |
| 2026-05-07 10:52 | 25.77174 | -81.51962 | 27058 ft | 442 kts | 296° |
| 2026-05-07 10:52 | 25.78554 | -81.55003 | 27379 ft | 441 kts | 296° |
| 2026-05-07 10:52 | 25.79922 | -81.58023 | 27730 ft | 440 kts | 296° |
| 2026-05-07 10:52 | 25.81287 | -81.61037 | 28068 ft | 438 kts | 296° |
| 2026-05-07 10:53 | 25.82649 | -81.64047 | 28421 ft | 436 kts | 296° |
| 2026-05-07 10:53 | 25.84015 | -81.67069 | 28789 ft | 434 kts | 295° |
| 2026-05-07 10:53 | 25.85373 | -81.70075 | 29146 ft | 433 kts | 295° |
| 2026-05-07 10:53 | 25.86759 | -81.73002 | 29451 ft | 433 kts | 299° |
| 2026-05-07 10:54 | 25.88405 | -81.75815 | 29729 ft | 434 kts | 304° |
| 2026-05-07 10:54 | 25.90291 | -81.78438 | 30012 ft | 435 kts | 309° |
| 2026-05-07 10:54 | 25.92406 | -81.80862 | 30303 ft | 436 kts | 315° |
| 2026-05-07 10:54 | 25.94718 | -81.83048 | 30604 ft | 436 kts | 319° |
| 2026-05-07 10:55 | 25.97099 | -81.85084 | 30903 ft | 436 kts | 320° |
| 2026-05-07 10:55 | 25.99530 | -81.87125 | 31203 ft | 435 kts | 320° |
| 2026-05-07 10:55 | 26.01964 | -81.89164 | 31491 ft | 434 kts | 320° |
| 2026-05-07 10:55 | 26.04372 | -81.91183 | 31743 ft | 434 kts | 320° |
| 2026-05-07 10:56 | 26.06783 | -81.93207 | 31981 ft | 434 kts | 320° |
| 2026-05-07 10:56 | 26.09197 | -81.95236 | 32204 ft | 434 kts | 320° |
| 2026-05-07 10:56 | 26.11609 | -81.97266 | 32406 ft | 434 kts | 320° |
| 2026-05-07 10:56 | 26.14011 | -81.99290 | 32592 ft | 435 kts | 320° |
| 2026-05-07 10:57 | 26.16436 | -82.01335 | 32765 ft | 436 kts | 320° |
| 2026-05-07 10:57 | 26.18870 | -82.03389 | 32920 ft | 437 kts | 320° |
| 2026-05-07 10:57 | 26.21294 | -82.05434 | 33090 ft | 438 kts | 320° |
| 2026-05-07 10:57 | 26.23727 | -82.07488 | 33285 ft | 438 kts | 320° |
| 2026-05-07 10:58 | 26.26131 | -82.09519 | 33482 ft | 437 kts | 320° |
| 2026-05-07 10:58 | 26.28574 | -82.11584 | 33663 ft | 437 kts | 320° |
| 2026-05-07 10:58 | 26.31011 | -82.13646 | 33806 ft | 438 kts | 320° |
| 2026-05-07 10:58 | 26.33445 | -82.15706 | 33946 ft | 438 kts | 320° |
| 2026-05-07 10:59 | 26.38279 | -82.19800 | 34029 ft | 439 kts | 320° |
| 2026-05-07 10:59 | 26.43146 | -82.23929 | 34030 ft | 439 kts | 320° |
| 2026-05-07 11:00 | 26.48015 | -82.28062 | 34030 ft | 439 kts | 320° |
| 2026-05-07 11:00 | 26.52880 | -82.32197 | 34031 ft | 439 kts | 320° |
| 2026-05-07 11:01 | 26.57727 | -82.36321 | 34031 ft | 439 kts | 320° |
| 2026-05-07 11:01 | 26.62592 | -82.40464 | 34030 ft | 439 kts | 320° |
| 2026-05-07 11:02 | 26.67440 | -82.44598 | 34031 ft | 438 kts | 320° |
| 2026-05-07 11:02 | 26.72285 | -82.48734 | 34030 ft | 439 kts | 320° |
| 2026-05-07 11:03 | 26.77137 | -82.52880 | 34032 ft | 439 kts | 320° |
| 2026-05-07 11:03 | 26.81962 | -82.57008 | 34030 ft | 438 kts | 320° |
| 2026-05-07 11:04 | 26.86798 | -82.61153 | 34030 ft | 437 kts | 320° |
| 2026-05-07 11:04 | 26.91653 | -82.65318 | 34034 ft | 438 kts | 319° |
| 2026-05-07 11:05 | 26.96454 | -82.69443 | 34029 ft | 437 kts | 319° |
| 2026-05-07 11:05 | 27.01321 | -82.73629 | 34028 ft | 438 kts | 319° |
| 2026-05-07 11:06 | 27.06129 | -82.77814 | 34028 ft | 438 kts | 317° |
| 2026-05-07 11:06 | 27.10440 | -82.82610 | 34033 ft | 434 kts | 308° |
| 2026-05-07 11:07 | 27.13948 | -82.88074 | 34030 ft | 431 kts | 299° |
| 2026-05-07 11:07 | 27.16598 | -82.94067 | 34029 ft | 430 kts | 291° |
| 2026-05-07 11:08 | 27.18662 | -83.00373 | 34032 ft | 430 kts | 289° |
| 2026-05-07 11:08 | 27.20671 | -83.06671 | 34027 ft | 429 kts | 289° |
| 2026-05-07 11:09 | 27.22682 | -83.12987 | 34029 ft | 429 kts | 289° |
| 2026-05-07 11:09 | 27.24695 | -83.19317 | 34030 ft | 429 kts | 289° |
| 2026-05-07 11:10 | 27.26689 | -83.25598 | 34024 ft | 429 kts | 289° |
| 2026-05-07 11:10 | 27.28693 | -83.31921 | 34027 ft | 428 kts | 289° |
| 2026-05-07 11:11 | 27.30689 | -83.38231 | 34026 ft | 428 kts | 289° |
| 2026-05-07 11:11 | 27.32672 | -83.44505 | 34025 ft | 428 kts | 289° |
| 2026-05-07 11:12 | 27.34671 | -83.50847 | 34026 ft | 429 kts | 289° |
| 2026-05-07 11:12 | 27.36645 | -83.57118 | 34026 ft | 428 kts | 289° |
| 2026-05-07 11:13 | 27.38637 | -83.63456 | 34026 ft | 428 kts | 289° |
| 2026-05-07 11:13 | 27.40622 | -83.69788 | 34025 ft | 428 kts | 288° |
| 2026-05-07 11:14 | 27.42594 | -83.76086 | 34018 ft | 428 kts | 288° |
| 2026-05-07 11:14 | 27.44568 | -83.82404 | 34025 ft | 428 kts | 288° |
| 2026-05-07 11:15 | 27.46531 | -83.88694 | 34022 ft | 427 kts | 288° |
| 2026-05-07 11:15 | 27.48497 | -83.95010 | 34020 ft | 427 kts | 288° |
| 2026-05-07 11:16 | 27.50464 | -84.01335 | 34021 ft | 427 kts | 288° |
| 2026-05-07 11:16 | 27.52418 | -84.07632 | 34024 ft | 427 kts | 288° |
| 2026-05-07 11:17 | 27.54382 | -84.13970 | 34020 ft | 427 kts | 288° |
| 2026-05-07 11:17 | 27.56335 | -84.20291 | 34017 ft | 426 kts | 288° |
| 2026-05-07 11:18 | 27.58278 | -84.26588 | 34014 ft | 426 kts | 288° |
| 2026-05-07 11:18 | 27.60221 | -84.32896 | 34013 ft | 426 kts | 288° |
| 2026-05-07 11:19 | 27.62167 | -84.39224 | 34013 ft | 426 kts | 288° |
| 2026-05-07 11:19 | 27.64105 | -84.45538 | 34014 ft | 426 kts | 288° |
| 2026-05-07 11:20 | 27.66034 | -84.51835 | 34015 ft | 426 kts | 288° |
| 2026-05-07 11:20 | 27.67964 | -84.58147 | 34012 ft | 425 kts | 288° |
| 2026-05-07 11:21 | 27.69893 | -84.64467 | 34013 ft | 425 kts | 288° |
| 2026-05-07 11:21 | 27.71820 | -84.70792 | 34013 ft | 425 kts | 287° |
| 2026-05-07 11:22 | 27.73729 | -84.77070 | 34012 ft | 424 kts | 287° |
| 2026-05-07 11:22 | 27.75635 | -84.83350 | 34012 ft | 424 kts | 287° |
| 2026-05-07 11:23 | 27.77555 | -84.89689 | 34013 ft | 424 kts | 287° |
| 2026-05-07 11:23 | 27.79464 | -84.96004 | 34011 ft | 424 kts | 287° |
| 2026-05-07 11:24 | 27.81359 | -85.02286 | 34011 ft | 424 kts | 287° |
| 2026-05-07 11:24 | 27.83261 | -85.08600 | 34011 ft | 424 kts | 287° |
| 2026-05-07 11:25 | 27.85160 | -85.14919 | 34010 ft | 424 kts | 287° |
| 2026-05-07 11:25 | 27.87047 | -85.21213 | 34008 ft | 424 kts | 287° |
| 2026-05-07 11:26 | 27.88942 | -85.27524 | 34006 ft | 424 kts | 287° |
| 2026-05-07 11:26 | 27.90857 | -85.33817 | 34005 ft | 424 kts | 287° |
| 2026-05-07 11:27 | 27.92766 | -85.40106 | 34005 ft | 423 kts | 287° |
| 2026-05-07 11:27 | 27.94673 | -85.46405 | 34003 ft | 423 kts | 287° |
| 2026-05-07 11:28 | 27.96570 | -85.52691 | 34001 ft | 422 kts | 287° |
| 2026-05-07 11:28 | 27.98469 | -85.58992 | 34005 ft | 423 kts | 287° |
| 2026-05-07 11:29 | 28.00331 | -85.65187 | 34002 ft | 423 kts | 286° |
| 2026-05-07 11:29 | 28.02232 | -85.71527 | 34006 ft | 424 kts | 286° |
| 2026-05-07 11:30 | 28.04115 | -85.77812 | 34003 ft | 423 kts | 286° |
| 2026-05-07 11:30 | 28.06009 | -85.84146 | 33998 ft | 424 kts | 286° |
| 2026-05-07 11:31 | 28.07886 | -85.90438 | 33995 ft | 423 kts | 286° |
| 2026-05-07 11:31 | 28.09778 | -85.96788 | 34004 ft | 423 kts | 286° |
| 2026-05-07 11:32 | 28.12587 | -86.06245 | 34004 ft | 423 kts | 286° |
| 2026-05-07 11:33 | 28.14453 | -86.12540 | 34007 ft | 422 kts | 286° |
| 2026-05-07 11:33 | 28.16316 | -86.18843 | 34010 ft | 421 kts | 286° |
| 2026-05-07 11:34 | 28.18171 | -86.25124 | 34005 ft | 421 kts | 286° |
| 2026-05-07 11:34 | 28.20021 | -86.31406 | 34007 ft | 420 kts | 286° |
| 2026-05-07 11:35 | 28.21871 | -86.37695 | 34006 ft | 421 kts | 286° |
| 2026-05-07 11:35 | 28.23717 | -86.43983 | 34007 ft | 421 kts | 286° |
| 2026-05-07 11:36 | 28.25571 | -86.50310 | 34003 ft | 422 kts | 286° |
| 2026-05-07 11:36 | 28.27405 | -86.56589 | 34009 ft | 421 kts | 286° |
| 2026-05-07 11:37 | 28.29250 | -86.62915 | 34005 ft | 421 kts | 286° |
| 2026-05-07 11:37 | 28.31082 | -86.69207 | 34005 ft | 421 kts | 285° |
| 2026-05-07 11:38 | 28.32928 | -86.75507 | 34003 ft | 420 kts | 285° |
| 2026-05-07 11:38 | 28.34783 | -86.81821 | 34004 ft | 421 kts | 285° |
| 2026-05-07 11:39 | 28.36616 | -86.88088 | 34006 ft | 420 kts | 285° |
| 2026-05-07 11:39 | 28.38461 | -86.94408 | 34006 ft | 420 kts | 285° |
| 2026-05-07 11:40 | 28.40290 | -87.00692 | 34004 ft | 420 kts | 285° |
| 2026-05-07 11:40 | 28.42132 | -87.07026 | 34003 ft | 420 kts | 285° |
| 2026-05-07 11:41 | 28.43961 | -87.13330 | 34003 ft | 420 kts | 285° |
| 2026-05-07 11:41 | 28.45781 | -87.19617 | 33997 ft | 420 kts | 285° |
| 2026-05-07 11:42 | 28.47596 | -87.25904 | 33995 ft | 420 kts | 285° |
| 2026-05-07 11:42 | 28.49413 | -87.32208 | 33996 ft | 420 kts | 285° |
| 2026-05-07 11:43 | 28.51226 | -87.38506 | 33995 ft | 420 kts | 285° |
| 2026-05-07 11:43 | 28.53043 | -87.44828 | 33991 ft | 419 kts | 285° |
| 2026-05-07 11:44 | 28.54844 | -87.51114 | 33988 ft | 419 kts | 285° |
| 2026-05-07 11:44 | 28.56650 | -87.57422 | 33987 ft | 420 kts | 285° |
| 2026-05-07 11:45 | 28.58444 | -87.63704 | 33987 ft | 419 kts | 285° |
| 2026-05-07 11:45 | 28.60237 | -87.69997 | 33984 ft | 419 kts | 285° |
| 2026-05-07 11:46 | 28.62029 | -87.76305 | 33985 ft | 419 kts | 285° |
| 2026-05-07 11:46 | 28.63818 | -87.82605 | 33981 ft | 419 kts | 285° |
| 2026-05-07 11:47 | 28.65605 | -87.88914 | 33979 ft | 418 kts | 285° |
| 2026-05-07 11:47 | 28.67383 | -87.95203 | 33975 ft | 418 kts | 285° |
| 2026-05-07 11:48 | 28.69155 | -88.01489 | 33974 ft | 419 kts | 285° |
| 2026-05-07 11:48 | 28.70933 | -88.07812 | 33977 ft | 419 kts | 284° |
| 2026-05-07 11:49 | 28.72707 | -88.14109 | 33976 ft | 419 kts | 284° |
| 2026-05-07 11:49 | 28.74480 | -88.20422 | 33974 ft | 418 kts | 284° |
| 2026-05-07 11:50 | 28.76236 | -88.26696 | 33974 ft | 418 kts | 284° |
| 2026-05-07 11:50 | 28.78005 | -88.33027 | 33975 ft | 418 kts | 284° |
| 2026-05-07 11:51 | 28.79756 | -88.39305 | 33974 ft | 417 kts | 284° |
| 2026-05-07 11:51 | 28.81512 | -88.45622 | 33973 ft | 418 kts | 284° |
| 2026-05-07 11:52 | 28.83257 | -88.51917 | 33973 ft | 417 kts | 284° |
| 2026-05-07 11:52 | 28.85001 | -88.58211 | 33972 ft | 417 kts | 284° |
| 2026-05-07 11:53 | 28.87022 | -88.64394 | 33972 ft | 420 kts | 290° |
| 2026-05-07 11:53 | 28.89684 | -88.70389 | 33972 ft | 424 kts | 295° |
| 2026-05-07 11:54 | 28.92921 | -88.76010 | 33974 ft | 428 kts | 301° |
| 2026-05-07 11:54 | 28.96696 | -88.81278 | 33971 ft | 430 kts | 304° |
| 2026-05-07 11:55 | 29.00522 | -88.86372 | 33971 ft | 430 kts | 305° |
| 2026-05-07 11:55 | 29.04414 | -88.91546 | 33969 ft | 429 kts | 305° |
| 2026-05-07 11:56 | 29.08289 | -88.96703 | 33968 ft | 428 kts | 304° |
| 2026-05-07 11:56 | 29.12003 | -89.01656 | 33969 ft | 428 kts | 304° |
| 2026-05-07 11:57 | 29.15857 | -89.06799 | 33966 ft | 428 kts | 304° |
| 2026-05-07 11:57 | 29.19736 | -89.11984 | 33966 ft | 429 kts | 304° |
| 2026-05-07 11:58 | 29.23584 | -89.17135 | 33967 ft | 428 kts | 304° |
| 2026-05-07 11:58 | 29.27462 | -89.22330 | 33968 ft | 429 kts | 304° |
| 2026-05-07 11:59 | 29.31344 | -89.27538 | 33970 ft | 429 kts | 304° |
| 2026-05-07 11:59 | 29.35201 | -89.32719 | 33968 ft | 429 kts | 304° |
| 2026-05-07 12:00 | 29.39080 | -89.37937 | 33966 ft | 430 kts | 304° |
| 2026-05-07 12:00 | 29.42961 | -89.43164 | 33968 ft | 429 kts | 304° |
| 2026-05-07 12:01 | 29.46815 | -89.48362 | 33969 ft | 429 kts | 304° |
| 2026-05-07 12:01 | 29.50651 | -89.53541 | 33966 ft | 429 kts | 304° |
| 2026-05-07 12:02 | 29.54510 | -89.58762 | 33969 ft | 428 kts | 304° |
| 2026-05-07 12:02 | 29.58368 | -89.63983 | 33974 ft | 428 kts | 304° |
| 2026-05-07 12:03 | 29.62210 | -89.69194 | 33985 ft | 429 kts | 303° |
| 2026-05-07 12:03 | 29.66060 | -89.74425 | 33987 ft | 428 kts | 303° |
| 2026-05-07 12:04 | 29.69900 | -89.79643 | 33988 ft | 428 kts | 303° |
| 2026-05-07 12:04 | 29.73739 | -89.84863 | 33987 ft | 428 kts | 303° |
| 2026-05-07 12:05 | 29.77594 | -89.90118 | 33986 ft | 428 kts | 303° |
| 2026-05-07 12:05 | 29.81405 | -89.95322 | 33984 ft | 428 kts | 303° |
| 2026-05-07 12:06 | 29.85198 | -90.00459 | 33984 ft | 430 kts | 304° |
| 2026-05-07 12:06 | 29.89265 | -90.05532 | 33982 ft | 431 kts | 305° |
| 2026-05-07 12:07 | 29.93358 | -90.10610 | 33977 ft | 430 kts | 305° |
| 2026-05-07 12:07 | 29.97406 | -90.15641 | 33975 ft | 430 kts | 305° |
| 2026-05-07 12:08 | 30.01408 | -90.20629 | 33974 ft | 428 kts | 305° |
| 2026-05-07 12:08 | 30.05479 | -90.25706 | 33976 ft | 429 kts | 305° |
| 2026-05-07 12:09 | 30.09530 | -90.30764 | 33977 ft | 430 kts | 305° |
| 2026-05-07 12:09 | 30.13574 | -90.35825 | 33979 ft | 429 kts | 304° |
| 2026-05-07 12:10 | 30.17609 | -90.40882 | 33979 ft | 430 kts | 305° |
| 2026-05-07 12:10 | 30.21683 | -90.45990 | 33979 ft | 430 kts | 304° |
| 2026-05-07 12:11 | 30.25722 | -90.51064 | 33983 ft | 429 kts | 305° |
| 2026-05-07 12:11 | 30.29765 | -90.56149 | 33986 ft | 428 kts | 304° |
| 2026-05-07 12:12 | 30.33771 | -90.61192 | 33987 ft | 427 kts | 304° |
| 2026-05-07 12:12 | 30.37782 | -90.66251 | 33992 ft | 426 kts | 304° |
| 2026-05-07 12:13 | 30.41788 | -90.71310 | 33992 ft | 424 kts | 304° |
| 2026-05-07 12:13 | 30.45769 | -90.76340 | 33995 ft | 423 kts | 304° |
| 2026-05-07 12:14 | 30.49724 | -90.81348 | 33997 ft | 424 kts | 304° |
| 2026-05-07 12:14 | 30.53731 | -90.86424 | 34000 ft | 423 kts | 303° |
| 2026-05-07 12:15 | 30.57694 | -90.91457 | 34001 ft | 423 kts | 303° |
| 2026-05-07 12:15 | 30.61670 | -90.96506 | 34003 ft | 423 kts | 303° |
| 2026-05-07 12:16 | 30.65621 | -91.01538 | 34009 ft | 424 kts | 303° |
| 2026-05-07 12:16 | 30.69585 | -91.06587 | 34010 ft | 422 kts | 303° |
| 2026-05-07 12:17 | 30.73520 | -91.11609 | 34010 ft | 421 kts | 304° |
| 2026-05-07 12:17 | 30.77480 | -91.16666 | 34009 ft | 420 kts | 303° |
| 2026-05-07 12:18 | 30.81399 | -91.21681 | 34011 ft | 418 kts | 303° |
| 2026-05-07 12:18 | 30.85309 | -91.26688 | 34007 ft | 420 kts | 303° |
| 2026-05-07 12:19 | 30.89225 | -91.31714 | 34013 ft | 419 kts | 303° |
| 2026-05-07 12:19 | 30.93137 | -91.36734 | 34016 ft | 418 kts | 303° |
| 2026-05-07 12:20 | 30.97032 | -91.41741 | 34020 ft | 418 kts | 303° |
| 2026-05-07 12:20 | 31.00925 | -91.46758 | 34027 ft | 418 kts | 303° |
| 2026-05-07 12:21 | 31.04838 | -91.51805 | 34024 ft | 417 kts | 303° |
| 2026-05-07 12:21 | 31.08730 | -91.56829 | 34027 ft | 417 kts | 303° |
| 2026-05-07 12:22 | 31.12602 | -91.61835 | 34024 ft | 416 kts | 303° |
| 2026-05-07 12:22 | 31.16471 | -91.66843 | 34031 ft | 416 kts | 302° |
| 2026-05-07 12:23 | 31.20351 | -91.71871 | 34030 ft | 416 kts | 302° |
| 2026-05-07 12:23 | 31.24203 | -91.76869 | 34034 ft | 416 kts | 302° |
| 2026-05-07 12:24 | 31.28069 | -91.81895 | 34029 ft | 415 kts | 302° |
| 2026-05-07 12:24 | 31.31937 | -91.86927 | 34034 ft | 415 kts | 302° |
| 2026-05-07 12:25 | 31.35792 | -91.91948 | 34030 ft | 414 kts | 302° |
| 2026-05-07 12:25 | 31.39620 | -91.96945 | 34030 ft | 413 kts | 302° |
| 2026-05-07 12:26 | 31.43471 | -92.01976 | 34034 ft | 413 kts | 302° |
| 2026-05-07 12:26 | 31.47276 | -92.06954 | 34034 ft | 411 kts | 302° |
| 2026-05-07 12:27 | 31.51099 | -92.11964 | 34034 ft | 412 kts | 302° |
| 2026-05-07 12:27 | 31.54907 | -92.16956 | 34035 ft | 410 kts | 302° |
| 2026-05-07 12:28 | 31.58719 | -92.21961 | 34038 ft | 410 kts | 302° |
| 2026-05-07 12:28 | 31.62500 | -92.26937 | 34043 ft | 409 kts | 301° |
| 2026-05-07 12:29 | 31.66298 | -92.31936 | 34046 ft | 410 kts | 301° |
| 2026-05-07 12:29 | 31.70065 | -92.36906 | 34050 ft | 409 kts | 302° |
| 2026-05-07 12:30 | 31.73840 | -92.41887 | 34059 ft | 408 kts | 301° |
| 2026-05-07 12:30 | 31.77599 | -92.46859 | 34059 ft | 408 kts | 301° |
| 2026-05-07 12:31 | 31.81350 | -92.51827 | 34060 ft | 406 kts | 301° |
| 2026-05-07 12:31 | 31.85106 | -92.56808 | 34058 ft | 406 kts | 301° |
| 2026-05-07 12:32 | 31.88843 | -92.61766 | 34062 ft | 406 kts | 301° |
| 2026-05-07 12:32 | 31.92593 | -92.66751 | 34064 ft | 404 kts | 301° |
| 2026-05-07 12:33 | 31.98174 | -92.74181 | 34066 ft | 404 kts | 301° |
| 2026-05-07 12:33 | 32.01902 | -92.79154 | 34073 ft | 404 kts | 300° |
| 2026-05-07 12:34 | 32.05596 | -92.84085 | 34076 ft | 403 kts | 300° |
| 2026-05-07 12:34 | 32.09311 | -92.89053 | 34076 ft | 402 kts | 300° |
| 2026-05-07 12:35 | 32.13004 | -92.94000 | 34076 ft | 402 kts | 300° |
| 2026-05-07 12:35 | 32.16696 | -92.98949 | 34083 ft | 402 kts | 300° |
| 2026-05-07 12:36 | 32.20374 | -93.03887 | 34080 ft | 401 kts | 300° |
| 2026-05-07 12:36 | 32.24057 | -93.08837 | 34085 ft | 401 kts | 300° |
| 2026-05-07 12:37 | 32.27735 | -93.13789 | 34082 ft | 400 kts | 300° |
| 2026-05-07 12:37 | 32.31382 | -93.18708 | 34085 ft | 401 kts | 300° |
| 2026-05-07 12:38 | 32.35074 | -93.23692 | 34083 ft | 401 kts | 300° |
| 2026-05-07 12:38 | 32.38732 | -93.28637 | 34091 ft | 400 kts | 300° |
| 2026-05-07 12:39 | 32.42385 | -93.33580 | 34090 ft | 400 kts | 300° |
| 2026-05-07 12:39 | 32.46053 | -93.38549 | 34100 ft | 399 kts | 300° |
| 2026-05-07 12:40 | 32.49694 | -93.43492 | 34095 ft | 401 kts | 300° |
| 2026-05-07 12:40 | 32.53364 | -93.48480 | 34103 ft | 399 kts | 300° |
| 2026-05-07 12:41 | 32.56999 | -93.53426 | 34106 ft | 398 kts | 300° |
| 2026-05-07 12:41 | 32.60651 | -93.58401 | 34104 ft | 400 kts | 300° |
| 2026-05-07 12:42 | 32.64281 | -93.63357 | 34107 ft | 400 kts | 300° |
| 2026-05-07 12:42 | 32.67916 | -93.68327 | 34109 ft | 398 kts | 299° |
| 2026-05-07 12:43 | 32.71542 | -93.73291 | 34109 ft | 397 kts | 299° |
| 2026-05-07 12:43 | 32.75153 | -93.78241 | 34113 ft | 397 kts | 299° |
| 2026-05-07 12:44 | 32.78743 | -93.83184 | 34111 ft | 396 kts | 298° |
| 2026-05-07 12:44 | 32.82312 | -93.88158 | 34112 ft | 394 kts | 298° |
| 2026-05-07 12:45 | 32.85887 | -93.93155 | 34112 ft | 394 kts | 298° |
| 2026-05-07 12:45 | 32.89439 | -93.98123 | 34111 ft | 394 kts | 298° |
| 2026-05-07 12:46 | 32.93002 | -94.03113 | 34111 ft | 395 kts | 298° |
| 2026-05-07 12:46 | 32.96547 | -94.08089 | 34112 ft | 394 kts | 298° |
| 2026-05-07 12:47 | 33.00112 | -94.13097 | 34116 ft | 394 kts | 298° |
| 2026-05-07 12:47 | 33.03644 | -94.18070 | 34115 ft | 393 kts | 298° |
| 2026-05-07 12:48 | 33.07176 | -94.23044 | 34114 ft | 392 kts | 298° |
| 2026-05-07 12:48 | 33.10724 | -94.28050 | 34122 ft | 394 kts | 298° |
| 2026-05-07 12:49 | 33.14233 | -94.33006 | 34120 ft | 392 kts | 298° |
| 2026-05-07 12:49 | 33.17748 | -94.37977 | 34125 ft | 391 kts | 298° |
| 2026-05-07 12:50 | 33.21258 | -94.42949 | 34121 ft | 392 kts | 298° |
| 2026-05-07 12:50 | 33.24771 | -94.47929 | 34121 ft | 390 kts | 298° |
| 2026-05-07 12:51 | 33.28253 | -94.52876 | 34123 ft | 390 kts | 298° |
| 2026-05-07 12:51 | 33.31751 | -94.57850 | 34125 ft | 389 kts | 298° |
| 2026-05-07 12:52 | 33.35236 | -94.62812 | 34125 ft | 389 kts | 298° |
| 2026-05-07 12:52 | 33.38712 | -94.67774 | 34130 ft | 388 kts | 297° |
| 2026-05-07 12:53 | 33.42180 | -94.72727 | 34128 ft | 389 kts | 297° |
| 2026-05-07 12:53 | 33.45660 | -94.77708 | 34132 ft | 388 kts | 297° |
| 2026-05-07 12:54 | 33.49096 | -94.82623 | 34126 ft | 388 kts | 297° |
| 2026-05-07 12:54 | 33.52562 | -94.87595 | 34132 ft | 388 kts | 297° |
| 2026-05-07 12:55 | 33.56024 | -94.92567 | 34131 ft | 387 kts | 297° |
| 2026-05-07 12:55 | 33.59477 | -94.97534 | 34131 ft | 388 kts | 297° |
| 2026-05-07 12:56 | 33.62943 | -95.02527 | 34132 ft | 388 kts | 297° |
| 2026-05-07 12:56 | 33.66380 | -95.07487 | 34130 ft | 388 kts | 297° |
| 2026-05-07 12:57 | 33.69827 | -95.12461 | 34128 ft | 388 kts | 297° |
| 2026-05-07 12:57 | 33.73273 | -95.17448 | 34129 ft | 386 kts | 297° |
| 2026-05-07 12:58 | 33.76699 | -95.22414 | 34132 ft | 386 kts | 297° |
| 2026-05-07 12:58 | 33.80130 | -95.27391 | 34129 ft | 386 kts | 297° |
| 2026-05-07 12:59 | 33.83546 | -95.32347 | 34128 ft | 388 kts | 297° |
| 2026-05-07 12:59 | 33.87000 | -95.37363 | 34131 ft | 388 kts | 297° |
| 2026-05-07 13:00 | 33.90434 | -95.42361 | 34138 ft | 387 kts | 297° |
| 2026-05-07 13:00 | 33.93874 | -95.47375 | 34136 ft | 387 kts | 297° |
| 2026-05-07 13:01 | 33.97300 | -95.52378 | 34142 ft | 389 kts | 297° |
| 2026-05-07 13:01 | 34.00752 | -95.57428 | 34142 ft | 387 kts | 297° |
| 2026-05-07 13:02 | 34.04169 | -95.62427 | 34144 ft | 387 kts | 297° |
| 2026-05-07 13:02 | 34.07596 | -95.67454 | 34140 ft | 387 kts | 297° |
| 2026-05-07 13:03 | 34.11027 | -95.72492 | 34138 ft | 388 kts | 296° |
| 2026-05-07 13:03 | 34.14436 | -95.77505 | 34134 ft | 387 kts | 296° |
| 2026-05-07 13:04 | 34.17853 | -95.82537 | 34131 ft | 386 kts | 297° |
| 2026-05-07 13:04 | 34.21245 | -95.87537 | 34132 ft | 387 kts | 296° |
| 2026-05-07 13:05 | 34.24659 | -95.92580 | 34134 ft | 387 kts | 297° |
| 2026-05-07 13:05 | 34.28046 | -95.97592 | 34132 ft | 387 kts | 297° |
| 2026-05-07 13:06 | 34.31461 | -96.02650 | 34129 ft | 386 kts | 297° |
| 2026-05-07 13:06 | 34.34842 | -96.07668 | 34128 ft | 385 kts | 296° |
| 2026-05-07 13:07 | 34.38221 | -96.12686 | 34127 ft | 386 kts | 297° |
| 2026-05-07 13:07 | 34.41622 | -96.17742 | 34130 ft | 386 kts | 297° |
| 2026-05-07 13:08 | 34.45002 | -96.22772 | 34130 ft | 385 kts | 297° |
| 2026-05-07 13:08 | 34.48371 | -96.27801 | 34131 ft | 384 kts | 297° |
| 2026-05-07 13:09 | 34.51746 | -96.32846 | 34130 ft | 384 kts | 297° |
| 2026-05-07 13:09 | 34.55120 | -96.37899 | 34128 ft | 384 kts | 297° |
| 2026-05-07 13:10 | 34.58460 | -96.42905 | 34131 ft | 384 kts | 297° |
| 2026-05-07 13:10 | 34.61807 | -96.47932 | 34130 ft | 383 kts | 297° |
| 2026-05-07 13:11 | 34.65169 | -96.52972 | 34138 ft | 383 kts | 297° |
| 2026-05-07 13:11 | 34.68514 | -96.58001 | 34141 ft | 384 kts | 297° |
| 2026-05-07 13:12 | 34.71885 | -96.63076 | 34143 ft | 385 kts | 297° |
| 2026-05-07 13:12 | 34.75246 | -96.68147 | 34148 ft | 383 kts | 297° |
| 2026-05-07 13:13 | 34.78559 | -96.73154 | 34148 ft | 382 kts | 297° |
| 2026-05-07 13:13 | 34.81903 | -96.78211 | 34149 ft | 382 kts | 297° |
| 2026-05-07 13:14 | 34.85214 | -96.83227 | 34149 ft | 381 kts | 297° |
| 2026-05-07 13:14 | 34.88540 | -96.88276 | 34149 ft | 380 kts | 297° |
| 2026-05-07 13:15 | 34.91845 | -96.93296 | 34148 ft | 381 kts | 297° |
| 2026-05-07 13:15 | 34.95153 | -96.98332 | 34147 ft | 382 kts | 297° |
| 2026-05-07 13:16 | 34.98489 | -97.03419 | 34149 ft | 382 kts | 297° |
| 2026-05-07 13:16 | 35.01765 | -97.08418 | 34149 ft | 383 kts | 297° |
| 2026-05-07 13:17 | 35.05084 | -97.13493 | 34150 ft | 382 kts | 297° |
| 2026-05-07 13:17 | 35.08411 | -97.18586 | 34152 ft | 384 kts | 297° |
| 2026-05-07 13:18 | 35.11711 | -97.23650 | 34154 ft | 382 kts | 297° |
| 2026-05-07 13:18 | 35.15035 | -97.28751 | 34161 ft | 384 kts | 297° |
| 2026-05-07 13:19 | 35.18343 | -97.33836 | 34165 ft | 382 kts | 297° |
| 2026-05-07 13:19 | 35.21634 | -97.38904 | 34164 ft | 382 kts | 298° |
| 2026-05-07 13:20 | 35.24940 | -97.44003 | 34166 ft | 384 kts | 298° |
| 2026-05-07 13:20 | 35.28255 | -97.49125 | 34167 ft | 384 kts | 298° |
| 2026-05-07 13:21 | 35.31573 | -97.54257 | 34166 ft | 385 kts | 298° |
| 2026-05-07 13:21 | 35.34782 | -97.59438 | 34163 ft | 381 kts | 295° |
| 2026-05-07 13:22 | 35.37590 | -97.64857 | 34163 ft | 376 kts | 291° |
| 2026-05-07 13:22 | 35.40121 | -97.70450 | 34160 ft | 374 kts | 290° |
| 2026-05-07 13:23 | 35.42639 | -97.76047 | 34154 ft | 375 kts | 290° |
| 2026-05-07 13:23 | 35.45137 | -97.81636 | 34158 ft | 376 kts | 290° |
| 2026-05-07 13:24 | 35.47637 | -97.87246 | 34159 ft | 376 kts | 290° |
| 2026-05-07 13:24 | 35.50147 | -97.92887 | 34160 ft | 377 kts | 290° |
| 2026-05-07 13:25 | 35.52651 | -97.98527 | 34156 ft | 378 kts | 290° |
| 2026-05-07 13:25 | 35.55155 | -98.04174 | 34154 ft | 378 kts | 290° |
| 2026-05-07 13:26 | 35.57676 | -98.09865 | 34156 ft | 379 kts | 290° |
| 2026-05-07 13:26 | 35.60170 | -98.15515 | 34151 ft | 380 kts | 291° |
| 2026-05-07 13:27 | 35.62685 | -98.21211 | 34154 ft | 380 kts | 291° |
| 2026-05-07 13:27 | 35.65212 | -98.26944 | 34143 ft | 381 kts | 290° |
| 2026-05-07 13:28 | 35.67716 | -98.32641 | 34150 ft | 382 kts | 290° |
| 2026-05-07 13:28 | 35.70229 | -98.38375 | 34153 ft | 383 kts | 291° |
| 2026-05-07 13:29 | 35.72753 | -98.44138 | 34151 ft | 383 kts | 291° |
| 2026-05-07 13:29 | 35.75295 | -98.49938 | 34153 ft | 385 kts | 291° |
| 2026-05-07 13:30 | 35.77821 | -98.55727 | 34156 ft | 384 kts | 291° |
| 2026-05-07 13:30 | 35.80341 | -98.61508 | 34157 ft | 386 kts | 291° |
| 2026-05-07 13:31 | 35.82884 | -98.67355 | 34154 ft | 386 kts | 291° |
| 2026-05-07 13:31 | 35.85420 | -98.73197 | 34140 ft | 387 kts | 291° |
| 2026-05-07 13:32 | 35.87962 | -98.79056 | 34138 ft | 388 kts | 291° |
| 2026-05-07 13:32 | 35.90488 | -98.84893 | 34140 ft | 388 kts | 291° |
| 2026-05-07 13:33 | 35.93034 | -98.90781 | 34138 ft | 390 kts | 291° |
| 2026-05-07 13:33 | 35.95586 | -98.96698 | 34138 ft | 389 kts | 291° |
| 2026-05-07 13:34 | 35.99397 | -99.05559 | 34146 ft | 391 kts | 291° |
| 2026-05-07 13:35 | 36.01922 | -99.11440 | 34138 ft | 393 kts | 291° |
| 2026-05-07 13:35 | 36.04481 | -99.17406 | 34135 ft | 394 kts | 292° |
| 2026-05-07 13:36 | 36.07066 | -99.23447 | 34345 ft | 396 kts | 292° |
| 2026-05-07 13:36 | 36.08347 | -99.26444 | 34610 ft | 394 kts | 292° |
| 2026-05-07 13:36 | 36.09619 | -99.29415 | 34848 ft | 392 kts | 291° |
| 2026-05-07 13:36 | 36.10896 | -99.32407 | 35020 ft | 392 kts | 291° |
| 2026-05-07 13:37 | 36.12164 | -99.35390 | 35205 ft | 391 kts | 291° |
| 2026-05-07 13:37 | 36.13433 | -99.38370 | 35392 ft | 390 kts | 291° |
| 2026-05-07 13:37 | 36.14687 | -99.41313 | 35582 ft | 389 kts | 291° |
| 2026-05-07 13:37 | 36.15940 | -99.44268 | 35734 ft | 389 kts | 291° |
| 2026-05-07 13:38 | 36.17210 | -99.47269 | 35850 ft | 390 kts | 291° |
| 2026-05-07 13:38 | 36.18461 | -99.50223 | 35956 ft | 390 kts | 292° |
| 2026-05-07 13:38 | 36.19720 | -99.53197 | 36076 ft | 390 kts | 291° |
| 2026-05-07 13:39 | 36.22249 | -99.59167 | 36140 ft | 393 kts | 291° |
| 2026-05-07 13:39 | 36.24781 | -99.65167 | 36141 ft | 392 kts | 291° |
| 2026-05-07 13:40 | 36.27309 | -99.71168 | 36141 ft | 394 kts | 291° |
| 2026-05-07 13:40 | 36.29840 | -99.77184 | 36137 ft | 394 kts | 291° |
| 2026-05-07 13:41 | 36.32428 | -99.83205 | 36141 ft | 397 kts | 294° |
| 2026-05-07 13:41 | 36.35413 | -99.89017 | 36134 ft | 403 kts | 298° |
| 2026-05-07 13:42 | 36.38853 | -99.94527 | 36134 ft | 407 kts | 302° |
| 2026-05-07 13:42 | 36.42525 | -99.99943 | 36130 ft | 408 kts | 303° |
| 2026-05-07 13:43 | 36.46091 | -100.05193 | 36134 ft | 409 kts | 303° |
| 2026-05-07 13:43 | 36.49744 | -100.10575 | 36124 ft | 410 kts | 303° |
| 2026-05-07 13:44 | 36.53420 | -100.15999 | 36124 ft | 410 kts | 303° |
| 2026-05-07 13:44 | 36.57110 | -100.21448 | 36123 ft | 410 kts | 303° |
| 2026-05-07 13:45 | 36.60778 | -100.26883 | 36116 ft | 412 kts | 304° |
| 2026-05-07 13:45 | 36.64468 | -100.32349 | 36116 ft | 412 kts | 304° |
| 2026-05-07 13:46 | 36.68168 | -100.37843 | 36118 ft | 413 kts | 304° |
| 2026-05-07 13:46 | 36.71836 | -100.43301 | 36114 ft | 414 kts | 304° |
| 2026-05-07 13:47 | 36.75555 | -100.48842 | 36109 ft | 415 kts | 304° |
| 2026-05-07 13:47 | 36.79232 | -100.54330 | 36112 ft | 415 kts | 304° |
| 2026-05-07 13:48 | 36.82928 | -100.59849 | 36107 ft | 415 kts | 304° |
| 2026-05-07 13:48 | 36.86625 | -100.65385 | 36114 ft | 416 kts | 304° |
| 2026-05-07 13:49 | 36.90326 | -100.70942 | 36103 ft | 417 kts | 304° |
| 2026-05-07 13:49 | 36.94035 | -100.76511 | 36109 ft | 417 kts | 304° |
| 2026-05-07 13:50 | 36.97741 | -100.82085 | 36105 ft | 418 kts | 304° |
| 2026-05-07 13:50 | 37.01456 | -100.87686 | 36109 ft | 418 kts | 304° |
| 2026-05-07 13:51 | 37.05174 | -100.93301 | 36100 ft | 418 kts | 304° |
| 2026-05-07 13:51 | 37.08870 | -100.98888 | 36094 ft | 419 kts | 305° |
| 2026-05-07 13:52 | 37.12548 | -101.04462 | 36102 ft | 418 kts | 304° |
| 2026-05-07 13:52 | 37.16229 | -101.10046 | 36102 ft | 418 kts | 305° |
| 2026-05-07 13:53 | 37.19929 | -101.15671 | 36103 ft | 418 kts | 305° |
| 2026-05-07 13:53 | 37.23607 | -101.21271 | 36102 ft | 417 kts | 305° |
| 2026-05-07 13:54 | 37.27301 | -101.26904 | 36105 ft | 418 kts | 305° |
| 2026-05-07 13:54 | 37.30957 | -101.32491 | 36103 ft | 417 kts | 305° |
| 2026-05-07 13:55 | 37.34638 | -101.38126 | 36106 ft | 417 kts | 305° |
| 2026-05-07 13:55 | 37.38306 | -101.43751 | 36107 ft | 417 kts | 305° |
| 2026-05-07 13:56 | 37.41964 | -101.49366 | 36099 ft | 416 kts | 305° |
| 2026-05-07 13:56 | 37.45619 | -101.54989 | 36095 ft | 416 kts | 305° |
| 2026-05-07 13:57 | 37.49287 | -101.60643 | 36094 ft | 417 kts | 306° |
| 2026-05-07 13:57 | 37.52945 | -101.66288 | 36095 ft | 417 kts | 305° |
| 2026-05-07 13:58 | 37.56602 | -101.71943 | 36081 ft | 416 kts | 305° |
| 2026-05-07 13:58 | 37.60249 | -101.77592 | 36079 ft | 416 kts | 305° |
| 2026-05-07 13:59 | 37.63894 | -101.83251 | 36087 ft | 416 kts | 305° |
| 2026-05-07 13:59 | 37.67530 | -101.88902 | 36098 ft | 416 kts | 305° |
| 2026-05-07 14:00 | 37.71154 | -101.94545 | 36102 ft | 417 kts | 305° |
| 2026-05-07 14:00 | 37.74741 | -102.00145 | 36106 ft | 416 kts | 305° |
| 2026-05-07 14:01 | 37.78377 | -102.05826 | 36106 ft | 415 kts | 305° |
| 2026-05-07 14:01 | 37.81988 | -102.11475 | 36111 ft | 416 kts | 306° |
| 2026-05-07 14:02 | 37.85842 | -102.16932 | 36107 ft | 417 kts | 309° |
| 2026-05-07 14:02 | 37.89811 | -102.22292 | 36113 ft | 417 kts | 309° |
| 2026-05-07 14:03 | 37.93752 | -102.27628 | 36108 ft | 418 kts | 309° |
| 2026-05-07 14:03 | 37.97733 | -102.33027 | 35914 ft | 417 kts | 309° |
| 2026-05-07 14:03 | 37.99708 | -102.35712 | 36033 ft | 418 kts | 309° |
| 2026-05-07 14:04 | 38.01702 | -102.38425 | 36073 ft | 420 kts | 309° |
| 2026-05-07 14:04 | 38.05659 | -102.43815 | 36105 ft | 419 kts | 309° |
| 2026-05-07 14:05 | 38.09634 | -102.49237 | 36107 ft | 419 kts | 310° |
| 2026-05-07 14:05 | 38.13595 | -102.54652 | 36104 ft | 418 kts | 309° |
| 2026-05-07 14:06 | 38.17538 | -102.60053 | 36104 ft | 418 kts | 309° |
| 2026-05-07 14:06 | 38.21487 | -102.65465 | 36105 ft | 418 kts | 309° |
| 2026-05-07 14:07 | 38.25457 | -102.70911 | 36113 ft | 419 kts | 309° |
| 2026-05-07 14:07 | 38.29410 | -102.76347 | 36114 ft | 419 kts | 309° |
| 2026-05-07 14:08 | 38.33360 | -102.81792 | 36116 ft | 418 kts | 309° |
| 2026-05-07 14:08 | 38.37300 | -102.87228 | 36122 ft | 418 kts | 309° |
| 2026-05-07 14:09 | 38.41280 | -102.92732 | 36116 ft | 416 kts | 309° |
| 2026-05-07 14:09 | 38.45226 | -102.98196 | 36131 ft | 416 kts | 309° |
| 2026-05-07 14:10 | 38.48283 | -103.02441 | 36115 ft | 416 kts | 310° |
| 2026-05-07 14:10 | 38.52054 | -103.07679 | 36126 ft | 415 kts | 310° |
| 2026-05-07 14:11 | 38.55947 | -103.13099 | 36120 ft | 414 kts | 310° |
| 2026-05-07 14:11 | 38.59849 | -103.18542 | 36126 ft | 414 kts | 310° |
| 2026-05-07 14:12 | 38.63753 | -103.23997 | 36128 ft | 414 kts | 310° |
| 2026-05-07 14:12 | 38.67644 | -103.29442 | 36136 ft | 414 kts | 310° |
| 2026-05-07 14:13 | 38.71518 | -103.34874 | 36141 ft | 414 kts | 310° |
| 2026-05-07 14:13 | 38.75384 | -103.40301 | 36117 ft | 411 kts | 310° |
| 2026-05-07 14:13 | 38.77293 | -103.42992 | 35860 ft | 407 kts | 310° |
| 2026-05-07 14:14 | 38.79196 | -103.45674 | 35272 ft | 408 kts | 310° |
| 2026-05-07 14:14 | 38.81089 | -103.48346 | 34511 ft | 412 kts | 311° |
| 2026-05-07 14:14 | 38.83037 | -103.51096 | 33632 ft | 415 kts | 311° |
| 2026-05-07 14:14 | 38.84971 | -103.53822 | 32713 ft | 417 kts | 311° |
| 2026-05-07 14:15 | 38.86911 | -103.56559 | 31733 ft | 420 kts | 311° |
| 2026-05-07 14:15 | 38.88878 | -103.59343 | 30716 ft | 424 kts | 311° |
| 2026-05-07 14:15 | 38.90853 | -103.62141 | 29676 ft | 427 kts | 311° |
| 2026-05-07 14:15 | 38.92850 | -103.64973 | 28606 ft | 431 kts | 311° |
| 2026-05-07 14:16 | 38.94847 | -103.67815 | 27493 ft | 436 kts | 310° |
| 2026-05-07 14:16 | 38.96903 | -103.70740 | 26326 ft | 440 kts | 311° |
| 2026-05-07 14:16 | 38.98932 | -103.73629 | 25402 ft | 439 kts | 311° |
| 2026-05-07 14:16 | 39.00966 | -103.76527 | 24610 ft | 435 kts | 311° |
| 2026-05-07 14:17 | 39.02993 | -103.79415 | 23835 ft | 432 kts | 311° |
| 2026-05-07 14:17 | 39.05002 | -103.82279 | 23226 ft | 425 kts | 311° |
| 2026-05-07 14:17 | 39.06942 | -103.85047 | 22937 ft | 413 kts | 311° |
| 2026-05-07 14:17 | 39.08830 | -103.87747 | 22659 ft | 402 kts | 311° |
| 2026-05-07 14:18 | 39.10690 | -103.90409 | 22335 ft | 393 kts | 311° |
| 2026-05-07 14:18 | 39.12488 | -103.92984 | 22089 ft | 381 kts | 311° |
| 2026-05-07 14:18 | 39.14232 | -103.95499 | 22071 ft | 364 kts | 311° |
| 2026-05-07 14:18 | 39.15863 | -103.97865 | 22076 ft | 351 kts | 311° |
| 2026-05-07 14:19 | 39.17416 | -104.00124 | 21829 ft | 348 kts | 311° |
| 2026-05-07 14:19 | 39.19035 | -104.02478 | 21310 ft | 348 kts | 311° |
| 2026-05-07 14:19 | 39.20633 | -104.04802 | 20839 ft | 346 kts | 311° |
| 2026-05-07 14:19 | 39.22228 | -104.07127 | 20384 ft | 344 kts | 311° |
| 2026-05-07 14:20 | 39.23804 | -104.09426 | 19943 ft | 341 kts | 311° |
| 2026-05-07 14:20 | 39.25348 | -104.11677 | 19592 ft | 335 kts | 311° |
| 2026-05-07 14:20 | 39.26877 | -104.13907 | 19464 ft | 322 kts | 311° |
| 2026-05-07 14:20 | 39.28336 | -104.16036 | 19293 ft | 312 kts | 311° |
| 2026-05-07 14:21 | 39.29828 | -104.17978 | 19178 ft | 300 kts | 318° |
| 2026-05-07 14:21 | 39.31471 | -104.19612 | 19134 ft | 296 kts | 325° |
| 2026-05-07 14:21 | 39.33240 | -104.21014 | 19150 ft | 300 kts | 328° |
| 2026-05-07 14:21 | 39.35067 | -104.22386 | 19153 ft | 300 kts | 328° |
| 2026-05-07 14:22 | 39.36864 | -104.23728 | 19144 ft | 300 kts | 328° |
| 2026-05-07 14:22 | 39.38694 | -104.25096 | 18959 ft | 302 kts | 328° |
| 2026-05-07 14:22 | 39.40508 | -104.26453 | 18529 ft | 301 kts | 328° |
| 2026-05-07 14:22 | 39.42309 | -104.27802 | 18125 ft | 300 kts | 328° |
| 2026-05-07 14:23 | 39.44116 | -104.29157 | 17734 ft | 297 kts | 328° |
| 2026-05-07 14:23 | 39.45901 | -104.30505 | 17354 ft | 295 kts | 327° |
| 2026-05-07 14:23 | 39.47602 | -104.31952 | 16993 ft | 291 kts | 323° |
| 2026-05-07 14:23 | 39.49212 | -104.33549 | 16963 ft | 288 kts | 321° |
| 2026-05-07 14:24 | 39.50777 | -104.35197 | 16988 ft | 290 kts | 320° |
| 2026-05-07 14:24 | 39.52340 | -104.36849 | 17016 ft | 290 kts | 320° |
| 2026-05-07 14:24 | 39.53910 | -104.38513 | 17046 ft | 291 kts | 320° |
| 2026-05-07 14:24 | 39.55476 | -104.40173 | 17064 ft | 291 kts | 320° |
| 2026-05-07 14:25 | 39.56969 | -104.41758 | 17067 ft | 291 kts | 320° |
| 2026-05-07 14:25 | 39.58534 | -104.43420 | 17031 ft | 290 kts | 320° |
| 2026-05-07 14:25 | 39.60116 | -104.45102 | 17051 ft | 291 kts | 320° |
| 2026-05-07 14:25 | 39.61688 | -104.46774 | 16942 ft | 292 kts | 320° |
| 2026-05-07 14:26 | 39.63262 | -104.48453 | 16487 ft | 293 kts | 321° |
| 2026-05-07 14:26 | 39.64816 | -104.50108 | 16084 ft | 292 kts | 321° |
| 2026-05-07 14:26 | 39.66391 | -104.51788 | 15692 ft | 291 kts | 321° |
| 2026-05-07 14:26 | 39.67942 | -104.53448 | 15318 ft | 289 kts | 319° |
| 2026-05-07 14:27 | 39.69356 | -104.55267 | 14958 ft | 287 kts | 312° |
| 2026-05-07 14:27 | 39.70563 | -104.57308 | 14885 ft | 285 kts | 306° |
| 2026-05-07 14:27 | 39.71675 | -104.59467 | 14909 ft | 287 kts | 305° |
| 2026-05-07 14:27 | 39.72761 | -104.61610 | 14930 ft | 288 kts | 305° |
| 2026-05-07 14:28 | 39.73860 | -104.63787 | 14922 ft | 289 kts | 305° |
| 2026-05-07 14:28 | 39.74956 | -104.65969 | 14540 ft | 290 kts | 304° |
| 2026-05-07 14:28 | 39.76058 | -104.68185 | 14150 ft | 289 kts | 304° |
| 2026-05-07 14:28 | 39.77146 | -104.70377 | 13776 ft | 287 kts | 304° |
| 2026-05-07 14:29 | 39.78211 | -104.72523 | 13412 ft | 285 kts | 304° |
| 2026-05-07 14:29 | 39.79292 | -104.74700 | 13050 ft | 284 kts | 304° |
| 2026-05-07 14:29 | 39.80353 | -104.76839 | 12698 ft | 282 kts | 304° |
| 2026-05-07 14:29 | 39.81411 | -104.78974 | 12347 ft | 280 kts | 304° |
| 2026-05-07 14:30 | 39.82465 | -104.81098 | 11995 ft | 278 kts | 304° |
| 2026-05-07 14:30 | 39.83704 | -104.82992 | 11610 ft | 275 kts | 326° |
| 2026-05-07 14:30 | 39.85452 | -104.83929 | 11306 ft | 272 kts | 351° |
| 2026-05-07 14:30 | 39.87309 | -104.83979 | 11221 ft | 261 kts | 359° |
| 2026-05-07 14:31 | 39.89076 | -104.83944 | 11108 ft | 250 kts | 359° |
| 2026-05-07 14:31 | 39.90768 | -104.83920 | 11038 ft | 241 kts | 358° |
| 2026-05-07 14:31 | 39.92456 | -104.83902 | 10985 ft | 240 kts | 358° |
| 2026-05-07 14:31 | 39.94130 | -104.83888 | 10979 ft | 241 kts | 358° |
| 2026-05-07 14:32 | 39.95814 | -104.83874 | 10970 ft | 240 kts | 358° |
| 2026-05-07 14:32 | 39.97480 | -104.83857 | 10770 ft | 237 kts | 358° |
| 2026-05-07 14:32 | 39.99128 | -104.83841 | 10411 ft | 238 kts | 358° |
| 2026-05-07 14:32 | 40.00773 | -104.83601 | 10046 ft | 242 kts | 19° |
| 2026-05-07 14:33 | 40.02087 | -104.82213 | 9670 ft | 251 kts | 55° |
| 2026-05-07 14:33 | 40.02658 | -104.80045 | 9339 ft | 256 kts | 82° |
| 2026-05-07 14:33 | 40.02784 | -104.77750 | 9034 ft | 256 kts | 84° |
| 2026-05-07 14:33 | 40.02907 | -104.75423 | 8702 ft | 256 kts | 84° |
| 2026-05-07 14:34 | 40.03002 | -104.73122 | 8425 ft | 254 kts | 96° |
| 2026-05-07 14:34 | 40.02432 | -104.71014 | 8089 ft | 246 kts | 128° |
| 2026-05-07 14:34 | 40.01172 | -104.69630 | 7744 ft | 231 kts | 162° |
| 2026-05-07 14:34 | 39.99679 | -104.69294 | 7576 ft | 201 kts | 183° |
| 2026-05-07 14:35 | 39.98351 | -104.69397 | 7247 ft | 186 kts | 187° |
| 2026-05-07 14:35 | 39.97111 | -104.69497 | 6956 ft | 171 kts | 185° |
| 2026-05-07 14:35 | 39.95970 | -104.69532 | 6652 ft | 160 kts | 184° |
| 2026-05-07 14:35 | 39.94852 | -104.69545 | 6374 ft | 158 kts | 184° |
| 2026-05-07 14:36 | 39.93790 | -104.69553 | 6166 ft | 148 kts | 184° |
| 2026-05-07 14:36 | 39.92786 | -104.69564 | 5958 ft | 140 kts | 184° |
| 2026-05-07 14:36 | 39.91821 | -104.69578 | 5787 ft | 139 kts | 183° |
| 2026-05-07 14:36 | 39.90844 | -104.69576 | 5611 ft | 139 kts | 184° |
| 2026-05-07 14:37 | 39.89877 | -104.69591 | 5417 ft | 137 kts | 183° |
| 2026-05-07 14:37 | 39.88230 | -104.69627 | 5337 ft | 77 kts | 182° |
| 2026-05-07 14:37 | 39.87858 | -104.69617 | 5331 ft | 36 kts | 173° |
| 2026-05-07 14:38 | 39.87648 | -104.69524 | 5331 ft | 31 kts | 155° |
| 2026-05-07 14:38 | 39.87453 | -104.69422 | 5331 ft | 28 kts | 177° |
| 2026-05-07 14:38 | 39.87268 | -104.69427 | 5331 ft | 25 kts | 182° |
| 2026-05-07 14:38 | 39.87100 | -104.69428 | 5331 ft | 23 kts | 180° |
| 2026-05-07 14:39 | 39.86946 | -104.69425 | 5331 ft | 21 kts | 181° |
| 2026-05-07 14:39 | 39.86798 | -104.69436 | 5331 ft | 20 kts | 182° |
| 2026-05-07 14:39 | 39.86659 | -104.69434 | 5331 ft | 19 kts | 180° |
| 2026-05-07 14:39 | 39.86526 | -104.69420 | 5331 ft | 18 kts | 167° |
| 2026-05-07 14:40 | 39.86409 | -104.69348 | 5331 ft | 18 kts | 150° |
| 2026-05-07 14:40 | 39.86303 | -104.69267 | 5334 ft | 16 kts | 150° |
| 2026-05-07 14:40 | 39.86209 | -104.69199 | 5339 ft | 13 kts | 150° |
| 2026-05-07 14:40 | 39.86125 | -104.69138 | 5341 ft | 15 kts | 150° |
| 2026-05-07 14:41 | 39.86035 | -104.69038 | 5345 ft | 17 kts | 104° |
| 2026-05-07 14:41 | 39.86034 | -104.68890 | 5360 ft | 19 kts | 90° |
| 2026-05-07 14:41 | 39.86034 | -104.68697 | 5372 ft | 20 kts | 89° |
| 2026-05-07 14:41 | 39.86018 | -104.68526 | 5373 ft | 19 kts | 138° |
| 2026-05-07 14:42 | 39.85885 | -104.68514 | 5373 ft | 19 kts | 180° |
| 2026-05-07 14:42 | 39.85750 | -104.68514 | 5373 ft | 19 kts | 175° |
| 2026-05-07 14:42 | 39.85687 | -104.68390 | 5373 ft | 19 kts | 88° |
| 2026-05-07 14:42 | 39.85685 | -104.68223 | 5377 ft | 17 kts | 92° |
| 2026-05-07 14:43 | 39.85668 | -104.68075 | 5380 ft | 16 kts | 93° |
| 2026-05-07 14:43 | 39.85667 | -104.67900 | 5380 ft | 21 kts | 90° |
| 2026-05-07 14:43 | 39.85666 | -104.67709 | 5380 ft | 20 kts | 91° |
| 2026-05-07 14:43 | 39.85663 | -104.67521 | 5380 ft | 20 kts | 91° |
| 2026-05-07 14:44 | 39.85661 | -104.67343 | 5380 ft | 19 kts | 89° |
| 2026-05-07 14:44 | 39.85666 | -104.67169 | 5380 ft | 18 kts | 91° |
| 2026-05-07 14:44 | 39.85661 | -104.67001 | 5380 ft | 18 kts | 91° |
| 2026-05-07 14:44 | 39.85638 | -104.66854 | 5380 ft | 15 kts | 134° |
| 2026-05-07 14:45 | 39.85569 | -104.66805 | 5380 ft | 8 kts | 177° |
| 2026-05-07 14:45 | 39.85519 | -104.66808 | 5380 ft | 5 kts | 180° |
| 2026-05-07 14:45 | 39.85488 | -104.66808 | 5380 ft | 4 kts | 180° |
| 2026-05-07 14:45 | 39.85479 | -104.66808 | 5380 ft | 0 kts | 179° |
| 2026-05-07 14:46 | 39.85475 | -104.66808 | 5380 ft | 0 kts | 179° |
| 2026-05-07 14:46 | 39.85469 | -104.66808 | 5380 ft | 1 kts | 180° |
| 2026-05-07 14:46 | 39.85467 | -104.66808 | 5380 ft | 0 kts | 180° |
| 2026-05-07 14:46 | 39.85466 | -104.66808 | 5380 ft | 0 kts | 180° |